createdAt,value
2018-06-28T00:00:24.232Z,4.03
2018-06-28T00:02:55.299Z,4.00
2018-06-28T00:05:24.821Z,3.63
2018-06-28T00:07:54.706Z,3.80
2018-06-28T00:10:25.298Z,4.13
2018-06-28T00:12:55.276Z,4.03
2018-06-28T00:15:25.284Z,3.40
2018-06-28T00:17:57.516Z,3.83
2018-06-28T00:20:27.878Z,4.03
2018-06-28T00:22:57.114Z,4.37
2018-06-28T00:25:29.135Z,3.80
2018-06-28T00:27:59.508Z,4.53
2018-06-28T00:30:41.270Z,5.07
2018-06-28T00:33:22.931Z,4.70
2018-06-28T00:36:04.442Z,4.60
2018-06-28T00:38:34.340Z,5.17
2018-06-28T00:41:04.722Z,5.03
2018-06-28T00:43:36.381Z,6.10
2018-06-28T00:46:06.442Z,5.23
2018-06-28T00:48:37.391Z,5.70
2018-06-28T00:51:06.754Z,4.80
2018-06-28T00:53:36.483Z,5.23
2018-06-28T00:56:06.303Z,5.60
2018-06-28T00:58:36.420Z,4.70
2018-06-28T01:01:10.147Z,4.67
2018-06-28T01:03:39.481Z,5.13
2018-06-28T01:06:12.132Z,5.33
2018-06-28T01:08:41.343Z,4.50
2018-06-28T01:11:11.201Z,5.23
2018-06-28T01:13:41.837Z,4.43
2018-06-28T01:16:13.024Z,4.90
2018-06-28T01:18:45.276Z,5.23
2018-06-28T01:21:14.472Z,5.10
2018-06-28T01:23:46.495Z,4.83
2018-06-28T01:26:16.016Z,4.60
2018-06-28T01:28:45.873Z,4.70
2018-06-28T01:31:15.086Z,5.37
2018-06-28T01:33:45.134Z,4.63
2018-06-28T01:36:14.999Z,5.10
2018-06-28T01:38:46.282Z,4.70
2018-06-28T01:41:16.357Z,4.07
2018-06-28T01:43:48.466Z,4.80
2018-06-28T01:46:20.090Z,4.83
2018-06-28T01:48:49.501Z,5.07
2018-06-28T01:51:20.401Z,5.50
2018-06-28T01:53:52.135Z,4.70
2018-06-28T01:56:23.476Z,4.70
2018-06-28T01:58:55.355Z,5.57
2018-06-28T02:01:25.148Z,7.73
2018-06-28T02:03:56.540Z,7.10
2018-06-28T02:06:26.624Z,6.10
2018-06-28T02:08:57.908Z,6.43
2018-06-28T02:11:29.328Z,5.17
2018-06-28T02:13:58.553Z,5.70
2018-06-28T02:16:30.164Z,5.50
2018-06-28T02:19:01.497Z,6.93
2018-06-28T02:21:33.384Z,4.47
2018-06-28T02:24:04.232Z,5.40
2018-06-28T02:26:33.443Z,4.90
2018-06-28T02:29:03.304Z,6.13
2018-06-28T02:31:33.099Z,4.47
2018-06-28T02:34:02.813Z,5.27
2018-06-28T02:36:33.548Z,5.60
2018-06-28T02:39:06.568Z,5.93
2018-06-28T02:41:37.697Z,5.17
2018-06-28T02:44:06.885Z,5.47
2018-06-28T02:46:37.413Z,5.50
2018-06-28T02:49:07.874Z,5.97
2018-06-28T02:51:39.813Z,5.00
2018-06-28T02:54:10.595Z,5.47
2018-06-28T02:56:39.747Z,5.83
2018-06-28T02:59:08.914Z,5.57
2018-06-28T03:01:40.610Z,5.30
2018-06-28T03:04:11.598Z,5.90
2018-06-28T03:06:41.035Z,5.30
2018-06-28T03:09:12.385Z,6.10
2018-06-28T03:11:42.374Z,6.70
2018-06-28T03:14:13.519Z,7.47
2018-06-28T03:16:44.359Z,6.07
2018-06-28T03:19:13.687Z,5.80
2018-06-28T03:21:45.726Z,5.40
2018-06-28T03:24:15.679Z,5.87
2018-06-28T03:26:46.643Z,6.27
2018-06-28T03:29:15.793Z,6.50
2018-06-28T03:31:44.939Z,6.57
2018-06-28T03:34:15.976Z,6.97
2018-06-28T03:36:45.147Z,5.80
2018-06-28T03:39:16.491Z,6.97
2018-06-28T03:41:45.781Z,6.47
2018-06-28T03:44:16.433Z,6.57
2018-06-28T03:46:47.156Z,7.00
2018-06-28T03:49:18.619Z,6.27
2018-06-28T03:51:49.362Z,6.10
2018-06-28T03:54:18.516Z,6.20
2018-06-28T03:56:48.774Z,6.27
2018-06-28T03:59:18.674Z,5.90
2018-06-28T04:01:50.686Z,5.63
2018-06-28T04:04:22.443Z,5.70
2018-06-28T04:06:52.149Z,5.10
2018-06-28T04:09:24.336Z,4.87
2018-06-28T04:11:53.537Z,5.90
2018-06-28T04:14:24.231Z,5.17
2018-06-28T04:16:55.000Z,5.50
2018-06-28T04:19:26.958Z,5.40
2018-06-28T04:21:57.696Z,5.20
2018-06-28T04:24:26.952Z,5.17
2018-06-28T04:27:03.117Z,5.90
2018-06-28T04:29:34.439Z,4.97
2018-06-28T04:32:06.454Z,5.27
2018-06-28T04:34:35.661Z,4.87
2018-06-28T04:37:07.747Z,5.37
2018-06-28T04:39:39.057Z,4.97
2018-06-28T04:42:10.555Z,5.00
2018-06-28T04:44:40.464Z,4.57
2018-06-28T04:47:09.674Z,5.40
2018-06-28T04:49:41.437Z,5.30
2018-06-28T04:52:11.190Z,4.30
2018-06-28T04:54:42.549Z,5.73
2018-06-28T04:57:11.763Z,4.10
2018-06-28T04:59:41.064Z,5.20
2018-06-28T05:02:10.298Z,5.37
2018-06-28T05:04:42.154Z,4.83
2018-06-28T05:07:14.072Z,4.70
2018-06-28T05:09:44.146Z,5.07
2018-06-28T05:12:15.693Z,4.03
2018-06-28T05:14:48.322Z,4.20
2018-06-28T05:17:17.686Z,3.30
2018-06-28T05:19:48.824Z,5.27
2018-06-28T05:22:18.219Z,4.00
2018-06-28T05:24:48.862Z,3.40
2018-06-28T05:27:19.157Z,3.57
2018-06-28T05:29:50.717Z,3.53
2018-06-28T05:32:22.528Z,4.53
2018-06-28T05:34:51.723Z,3.50
2018-06-28T05:37:21.812Z,4.30
2018-06-28T05:39:52.018Z,3.60
2018-06-28T05:42:22.357Z,3.70
2018-06-28T05:44:52.486Z,3.30
2018-06-28T05:47:22.444Z,3.60
2018-06-28T05:49:54.829Z,3.40
2018-06-28T05:52:24.463Z,3.57
2018-06-28T05:54:55.721Z,3.87
2018-06-28T05:57:26.691Z,2.63
2018-06-28T05:59:58.620Z,3.23
2018-06-28T06:02:27.834Z,3.53
2018-06-28T06:04:59.999Z,3.23
2018-06-28T06:07:29.239Z,3.30
2018-06-28T06:09:59.176Z,2.70
2018-06-28T06:12:29.654Z,2.77
2018-06-28T06:15:01.605Z,2.90
2018-06-28T06:17:31.712Z,2.70
2018-06-28T06:20:01.128Z,3.10
2018-06-28T06:22:33.421Z,2.50
2018-06-28T06:25:02.688Z,2.40
2018-06-28T06:27:32.445Z,2.43
2018-06-28T06:30:02.727Z,3.03
2018-06-28T06:32:33.006Z,2.67
2018-06-28T06:35:04.768Z,2.90
2018-06-28T06:37:36.477Z,2.60
2018-06-28T06:40:07.919Z,2.70
2018-06-28T06:42:37.164Z,2.40
2018-06-28T06:45:10.137Z,2.50
2018-06-28T06:47:46.332Z,2.40
2018-06-28T06:50:18.106Z,2.17
2018-06-28T06:52:49.642Z,2.03
2018-06-28T06:55:18.900Z,2.00
2018-06-28T06:57:49.090Z,1.97
2018-06-28T07:00:19.860Z,1.90
2018-06-28T07:02:52.004Z,2.17
2018-06-28T07:05:23.589Z,1.93
2018-06-28T07:07:52.852Z,2.20
2018-06-28T07:10:23.679Z,1.73
2018-06-28T07:12:53.454Z,1.97
2018-06-28T07:15:24.039Z,2.20
2018-06-28T07:17:54.275Z,1.83
2018-06-28T07:20:27.681Z,2.00
2018-06-28T07:22:57.486Z,2.30
2018-06-28T07:25:28.761Z,2.07
2018-06-28T07:28:00.440Z,1.63
2018-06-28T07:30:29.953Z,2.00
2018-06-28T07:33:01.075Z,1.50
2018-06-28T07:35:30.271Z,1.80
2018-06-28T07:37:59.413Z,1.83
2018-06-28T07:40:28.580Z,1.73
2018-06-28T07:42:57.741Z,2.07
2018-06-28T07:45:26.850Z,1.80
2018-06-28T07:47:55.993Z,1.50
2018-06-28T07:50:25.103Z,1.50
2018-06-28T07:52:54.383Z,1.50
2018-06-28T07:55:26.678Z,1.83
2018-06-28T07:57:56.256Z,1.60
2018-06-28T08:00:25.390Z,1.43
2018-06-28T08:02:54.511Z,1.33
2018-06-28T08:05:23.634Z,1.43
2018-06-28T08:07:52.807Z,1.60
2018-06-28T08:10:21.947Z,1.50
2018-06-28T08:12:51.082Z,1.60
2018-06-28T08:15:20.225Z,1.50
2018-06-28T08:17:49.338Z,1.70
2018-06-28T08:20:18.511Z,1.30
2018-06-28T08:22:47.643Z,1.43
2018-06-28T08:25:16.775Z,1.50
2018-06-28T08:27:45.878Z,1.40
2018-06-28T08:30:15.038Z,1.77
2018-06-28T08:32:44.170Z,2.17
2018-06-28T08:35:13.269Z,1.67
2018-06-28T08:37:42.395Z,1.30
2018-06-28T08:40:11.709Z,1.63
2018-06-28T08:42:40.881Z,1.60
2018-06-28T08:45:10.139Z,1.80
2018-06-28T08:47:39.287Z,1.97
2018-06-28T08:50:08.656Z,1.60
2018-06-28T08:52:37.869Z,1.60
2018-06-28T08:55:07.296Z,1.90
2018-06-28T08:57:36.482Z,1.67
2018-06-28T09:00:08.111Z,1.77
2018-06-28T09:02:37.228Z,1.37
2018-06-28T09:05:06.398Z,1.50
2018-06-28T09:07:35.524Z,1.53
2018-06-28T09:10:04.716Z,1.80
2018-06-28T09:12:33.830Z,1.93
2018-06-28T09:15:02.954Z,2.07
2018-06-28T09:17:32.093Z,2.00
2018-06-28T09:20:01.227Z,1.70
2018-06-28T09:22:30.374Z,1.73
2018-06-28T09:24:59.582Z,1.50
2018-06-28T09:27:28.743Z,1.03
2018-06-28T09:29:57.916Z,1.87
2018-06-28T09:32:27.082Z,1.80
2018-06-28T09:34:56.200Z,1.63
2018-06-28T09:37:25.373Z,1.40
2018-06-28T09:39:54.502Z,1.63
2018-06-28T09:42:23.707Z,1.90
2018-06-28T09:44:52.914Z,2.20
2018-06-28T09:47:22.093Z,1.60
2018-06-28T09:49:51.193Z,1.70
2018-06-28T09:52:20.365Z,1.70
2018-06-28T09:54:49.516Z,1.60
2018-06-28T09:57:18.658Z,1.57
2018-06-28T09:59:47.797Z,1.80
2018-06-28T10:02:16.941Z,1.93
2018-06-28T10:04:46.064Z,1.60
2018-06-28T10:07:15.165Z,1.90
2018-06-28T10:09:44.305Z,1.67
2018-06-28T10:12:13.446Z,1.70
2018-06-28T10:14:42.862Z,2.00
2018-06-28T10:17:12.030Z,1.67
2018-06-28T10:19:41.150Z,2.00
2018-06-28T10:22:10.312Z,1.47
2018-06-28T10:24:39.520Z,1.60
2018-06-28T10:27:08.624Z,2.13
2018-06-28T10:29:37.721Z,2.20
2018-06-28T10:32:06.914Z,1.80
2018-06-28T10:34:36.033Z,1.90
2018-06-28T10:37:05.207Z,2.00
2018-06-28T10:39:34.351Z,2.37
2018-06-28T10:42:03.555Z,1.83
2018-06-28T10:44:32.775Z,2.77
2018-06-28T10:47:01.991Z,2.67
2018-06-28T10:49:31.206Z,2.57
2018-06-28T10:52:00.365Z,2.20
2018-06-28T10:54:29.485Z,2.27
2018-06-28T10:56:58.641Z,2.80
2018-06-28T10:59:27.784Z,2.27
2018-06-28T11:01:56.925Z,3.30
2018-06-28T11:04:26.078Z,2.43
2018-06-28T11:06:55.202Z,3.10
2018-06-28T11:09:24.369Z,2.47
2018-06-28T11:11:53.565Z,2.43
2018-06-28T11:14:22.708Z,2.90
2018-06-28T11:16:51.858Z,2.73
2018-06-28T11:19:20.996Z,2.40
2018-06-28T11:21:50.693Z,2.77
2018-06-28T11:24:19.818Z,2.53
2018-06-28T11:26:48.962Z,2.37
2018-06-28T11:29:18.071Z,2.40
2018-06-28T11:31:47.217Z,2.60
2018-06-28T11:34:16.354Z,2.37
2018-06-28T11:36:45.493Z,2.43
2018-06-28T11:39:14.600Z,2.10
2018-06-28T11:41:43.808Z,2.20
2018-06-28T11:44:12.962Z,2.40
2018-06-28T11:46:43.686Z,2.03
2018-06-28T11:49:12.818Z,2.30
2018-06-28T11:51:41.956Z,2.37
2018-06-28T11:54:11.061Z,2.13
2018-06-28T11:56:40.254Z,2.50
2018-06-28T11:59:09.349Z,2.40
2018-06-28T12:01:38.502Z,1.83
2018-06-28T12:04:07.634Z,2.10
2018-06-28T12:06:36.754Z,1.83
2018-06-28T12:09:09.683Z,1.83
2018-06-28T12:11:38.838Z,2.37
2018-06-28T12:14:07.952Z,2.40
2018-06-28T12:16:37.111Z,2.57
2018-06-28T12:19:06.221Z,2.27
2018-06-28T12:21:35.370Z,2.67
2018-06-28T12:24:04.502Z,2.30
2018-06-28T12:26:33.691Z,3.33
2018-06-28T12:29:02.816Z,2.70
2018-06-28T12:31:31.963Z,2.20
2018-06-28T12:34:00.917Z,2.50
2018-06-28T12:36:30.024Z,2.70
2018-06-28T12:38:59.147Z,2.40
2018-06-28T12:41:28.074Z,2.43
2018-06-28T12:43:57.308Z,2.60
2018-06-28T12:47:53.930Z,2.70
2018-06-28T12:50:23.048Z,1.67
2018-06-28T12:52:54.557Z,2.30
2018-06-28T12:55:24.267Z,2.20
2018-06-28T12:57:55.171Z,2.23
2018-06-28T13:00:24.802Z,2.90
2018-06-28T13:02:54.501Z,2.50
2018-06-28T13:05:23.646Z,2.10
2018-06-28T13:07:52.837Z,2.60
2018-06-28T13:10:21.989Z,2.60
2018-06-28T13:12:51.115Z,2.10
2018-06-28T13:15:20.378Z,2.30
2018-06-28T13:17:49.508Z,2.50
2018-06-28T13:20:18.669Z,1.67
2018-06-28T13:22:47.802Z,2.67
2018-06-28T13:25:17.024Z,2.30
2018-06-28T13:27:46.138Z,2.90
2018-06-28T13:30:15.323Z,2.60
2018-06-28T13:32:44.532Z,2.60
2018-06-28T13:35:13.728Z,2.50
2018-06-28T13:37:42.902Z,1.93
2018-06-28T13:40:12.036Z,2.30
2018-06-28T13:42:41.190Z,2.20
2018-06-28T13:45:10.384Z,1.80
2018-06-28T13:47:39.502Z,2.47
2018-06-28T13:50:08.650Z,2.07
2018-06-28T13:52:37.794Z,2.00
2018-06-28T13:55:06.996Z,2.00
2018-06-28T13:57:36.194Z,1.90
2018-06-28T14:00:05.377Z,2.40
2018-06-28T14:02:34.513Z,2.20
2018-06-28T14:05:03.665Z,1.93
2018-06-28T14:07:32.865Z,1.73
2018-06-28T14:10:02.067Z,1.80
2018-06-28T14:12:31.233Z,2.40
2018-06-28T14:15:00.386Z,2.67
2018-06-28T14:17:29.575Z,2.33
2018-06-28T14:19:58.753Z,2.67
2018-06-28T14:22:28.053Z,2.60
2018-06-28T14:24:57.249Z,2.70
2018-06-28T14:27:26.721Z,2.00
2018-06-28T14:29:56.204Z,2.23
2018-06-28T14:32:25.658Z,2.30
2018-06-28T14:34:54.834Z,2.30
2018-06-28T14:37:24.166Z,2.50
2018-06-28T14:39:54.052Z,2.30
2018-06-28T14:42:23.230Z,2.00
2018-06-28T14:44:52.502Z,1.97
2018-06-28T14:47:21.661Z,3.03
2018-06-28T14:49:50.783Z,2.53
2018-06-28T14:52:19.986Z,2.60
2018-06-28T14:54:49.381Z,2.33
2018-06-28T14:57:18.582Z,1.90
2018-06-28T14:59:47.737Z,2.40
2018-06-28T15:02:16.864Z,2.67
2018-06-28T15:04:46.121Z,2.37
2018-06-28T15:07:15.374Z,2.40
2018-06-28T15:09:44.553Z,2.60
2018-06-28T15:12:13.711Z,2.27
2018-06-28T15:14:46.218Z,2.50
2018-06-28T15:17:15.405Z,2.60
2018-06-28T15:19:44.550Z,2.77
2018-06-28T15:22:13.736Z,2.97
2018-06-28T15:24:42.924Z,2.40
2018-06-28T15:27:12.289Z,3.10
2018-06-28T15:29:41.446Z,2.23
2018-06-28T15:32:10.591Z,2.37
2018-06-28T15:34:39.726Z,2.63
2018-06-28T15:37:08.940Z,2.30
2018-06-28T15:39:38.113Z,2.30
2018-06-28T15:42:07.277Z,2.27
2018-06-28T15:44:36.495Z,2.27
2018-06-28T15:47:05.705Z,2.50
2018-06-28T15:49:34.904Z,2.70
2018-06-28T15:52:04.199Z,2.10
2018-06-28T15:54:33.332Z,2.23
2018-06-28T15:57:02.498Z,1.90
2018-06-28T15:59:31.629Z,2.30
2018-06-28T16:02:00.755Z,2.70
2018-06-28T16:04:29.871Z,2.37
2018-06-28T16:06:59.082Z,2.50
2018-06-28T16:09:28.293Z,2.40
2018-06-28T16:11:57.450Z,2.60
2018-06-28T16:14:26.640Z,3.00
2018-06-28T16:16:55.817Z,2.60
2018-06-28T16:19:25.029Z,1.87
2018-06-28T16:21:54.193Z,1.97
2018-06-28T16:24:23.366Z,2.40
2018-06-28T16:26:52.549Z,2.33
2018-06-28T16:29:21.764Z,2.60
2018-06-28T16:31:50.972Z,1.93
2018-06-28T16:34:20.095Z,1.87
2018-06-28T16:36:49.246Z,2.50
2018-06-28T16:39:18.424Z,2.70
2018-06-28T16:41:47.586Z,2.30
2018-06-28T16:44:16.888Z,2.00
2018-06-28T16:46:46.118Z,2.60
2018-06-28T16:49:15.296Z,2.40
2018-06-28T16:51:44.513Z,3.17
2018-06-28T16:54:13.745Z,2.40
2018-06-28T16:56:42.933Z,2.83
2018-06-28T16:59:12.326Z,2.87
2018-06-28T17:01:41.596Z,2.47
2018-06-28T17:04:10.756Z,2.60
2018-06-28T17:06:40.023Z,2.60
2018-06-28T17:09:10.410Z,2.00
2018-06-28T17:11:39.584Z,1.87
2018-06-28T17:14:08.897Z,3.20
2018-06-28T17:16:38.098Z,2.90
2018-06-28T17:19:07.340Z,2.83
2018-06-28T17:21:36.502Z,2.40
2018-06-28T17:24:06.014Z,2.80
2018-06-28T17:26:35.146Z,2.67
2018-06-28T17:29:04.617Z,2.27
2018-06-28T17:31:33.850Z,2.10
2018-06-28T17:34:02.996Z,2.20
2018-06-28T17:36:32.219Z,2.17
2018-06-28T17:39:01.686Z,2.47
2018-06-28T17:41:30.876Z,2.03
2018-06-28T17:44:00.095Z,2.23
2018-06-28T17:46:29.374Z,2.73
2018-06-28T17:48:58.874Z,2.93
2018-06-28T17:51:28.497Z,3.00
2018-06-28T17:53:57.717Z,2.50
2018-06-28T17:56:26.939Z,2.10
2018-06-28T17:58:56.052Z,2.13
2018-06-28T18:01:25.324Z,2.30
2018-06-28T18:03:54.757Z,2.33
2018-06-28T18:06:24.198Z,2.60
2018-06-28T18:08:53.490Z,4.47
2018-06-28T18:11:22.821Z,5.73
2018-06-28T18:13:52.122Z,3.43
2018-06-28T18:16:21.381Z,10.00
2018-06-28T18:18:50.655Z,2.70
2018-06-28T18:21:19.912Z,2.53
2018-06-28T18:23:49.241Z,3.60
2018-06-28T18:26:18.553Z,3.10
2018-06-28T18:28:47.860Z,2.50
2018-06-28T18:31:17.114Z,2.30
2018-06-28T18:33:46.351Z,2.90
2018-06-28T18:36:15.504Z,2.90
2018-06-28T18:38:44.750Z,2.50
2018-06-28T18:41:13.710Z,3.20
2018-06-28T18:43:42.970Z,2.40
2018-06-28T18:46:12.195Z,3.17
2018-06-28T18:48:41.369Z,2.43
2018-06-28T18:51:10.537Z,2.80
2018-06-28T18:53:39.673Z,2.03
2018-06-28T18:56:09.051Z,3.00
2018-06-28T18:58:38.199Z,2.03
2018-06-28T19:01:07.395Z,2.10
2018-06-28T19:03:36.754Z,2.50
2018-06-28T19:06:06.013Z,3.07
2018-06-28T19:08:35.196Z,2.50
2018-06-28T19:11:04.574Z,2.33
2018-06-28T19:13:37.835Z,3.00
2018-06-28T19:16:13.011Z,2.60
2018-06-28T19:18:42.231Z,2.80
2018-06-28T19:21:16.771Z,3.03
2018-06-28T19:23:50.293Z,2.40
2018-06-28T19:26:19.901Z,2.70
2018-06-28T19:28:49.629Z,2.40
2018-06-28T19:31:24.151Z,2.40
2018-06-28T19:33:53.332Z,2.60
2018-06-28T19:36:22.561Z,3.17
2018-06-28T19:38:57.036Z,2.77
2018-06-28T19:41:31.559Z,2.70
2018-06-28T19:44:00.922Z,2.37
2018-06-28T19:46:30.130Z,2.40
2018-06-28T19:48:59.922Z,2.67
2018-06-28T19:51:34.307Z,2.20
2018-06-28T19:54:03.467Z,3.10
2018-06-28T19:56:32.886Z,2.90
2018-06-28T19:59:02.063Z,2.90
2018-06-28T20:01:37.694Z,2.50
2018-06-28T20:04:11.996Z,3.53
2018-06-28T20:06:42.413Z,2.10
2018-06-28T20:09:12.532Z,3.10
2018-06-28T20:11:42.132Z,2.47
2018-06-28T20:14:16.560Z,2.23
2018-06-28T20:16:51.149Z,2.53
2018-06-28T20:19:25.531Z,2.50
2018-06-28T20:21:54.850Z,2.90
2018-06-28T20:24:24.057Z,3.13
2018-06-28T20:26:58.689Z,3.50
2018-06-28T20:29:33.833Z,2.70
2018-06-28T20:32:08.196Z,3.10
2018-06-28T20:34:38.336Z,2.90
2018-06-28T20:37:07.559Z,2.70
2018-06-28T20:39:36.770Z,3.17
2018-06-28T20:42:06.576Z,2.97
2018-06-28T20:44:35.724Z,2.47
2018-06-28T20:47:04.889Z,2.50
2018-06-28T20:49:34.067Z,3.80
2018-06-28T20:52:03.329Z,2.70
2018-06-28T20:54:32.698Z,2.70
2018-06-28T20:57:01.836Z,4.30
2018-06-28T20:59:31.047Z,3.40
2018-06-28T21:02:00.531Z,2.90
2018-06-28T21:04:29.776Z,3.23
2018-06-28T21:06:59.055Z,3.00
2018-06-28T21:09:28.654Z,2.70
2018-06-28T21:11:58.101Z,2.67
2018-06-28T21:14:27.868Z,2.60
2018-06-28T21:16:58.821Z,2.83
2018-06-28T21:19:28.489Z,3.33
2018-06-28T21:21:57.623Z,3.87
2018-06-28T21:24:26.792Z,3.20
2018-06-28T21:26:55.989Z,3.60
2018-06-28T21:29:25.153Z,2.90
2018-06-28T21:31:54.384Z,2.93
2018-06-28T21:34:24.241Z,3.07
2018-06-28T21:36:53.580Z,3.33
2018-06-28T21:39:22.836Z,3.20
2018-06-28T21:41:53.049Z,2.90
2018-06-28T21:44:24.180Z,3.43
2018-06-28T21:46:55.670Z,3.20
2018-06-28T21:49:25.289Z,2.77
2018-06-28T21:51:55.510Z,5.60
2018-06-28T21:54:24.681Z,4.00
2018-06-28T21:56:54.721Z,3.63
2018-06-28T21:59:23.858Z,4.67
2018-06-28T22:01:55.582Z,3.10
2018-06-28T22:04:25.990Z,3.10
2018-06-28T22:06:55.152Z,2.70
2018-06-28T22:09:27.262Z,3.40
2018-06-28T22:11:56.942Z,3.40
2018-06-28T22:14:26.243Z,2.90
2018-06-28T22:16:55.439Z,3.00
2018-06-28T22:19:25.849Z,3.40
2018-06-28T22:21:54.987Z,2.93
2018-06-28T22:24:24.346Z,3.83
2018-06-28T22:26:54.483Z,3.43
2018-06-28T22:29:24.835Z,3.27
2018-06-28T22:31:55.590Z,2.70
2018-06-28T22:34:27.332Z,3.23
2018-06-28T22:36:57.205Z,3.30
2018-06-28T22:39:27.019Z,3.03
2018-06-28T22:41:57.613Z,3.20
2018-06-28T22:44:26.893Z,3.63
2018-06-28T22:46:56.681Z,3.23
2018-06-28T22:49:26.954Z,3.00
2018-06-28T22:51:58.300Z,3.40
2018-06-28T22:54:28.690Z,3.13
2018-06-28T22:56:58.961Z,3.40
2018-06-28T22:59:30.503Z,2.77
2018-06-28T23:01:59.924Z,4.30
2018-06-28T23:04:30.568Z,3.87
2018-06-28T23:07:00.351Z,4.00
2018-06-28T23:09:30.236Z,3.93
2018-06-28T23:12:02.304Z,2.93
2018-06-28T23:14:32.698Z,4.10
2018-06-28T23:17:03.334Z,5.27
2018-06-28T23:19:32.520Z,3.33
2018-06-28T23:22:03.615Z,3.80
2018-06-28T23:24:33.587Z,3.80
2018-06-28T23:27:04.401Z,3.27
2018-06-28T23:29:35.839Z,3.03
2018-06-28T23:32:07.573Z,3.50
2018-06-28T23:34:38.977Z,3.53
2018-06-28T23:37:08.264Z,3.30
2018-06-28T23:39:39.561Z,3.27
2018-06-28T23:42:08.886Z,3.73
2018-06-28T23:44:39.065Z,3.27
2018-06-28T23:47:09.693Z,3.47
2018-06-28T23:49:40.582Z,3.70
2018-06-28T23:52:10.822Z,3.43
2018-06-28T23:54:42.083Z,3.30
2018-06-28T23:57:14.427Z,3.37
2018-06-28T23:59:43.849Z,3.20
